Time;durP1;ratioP1;P1;durP2;ratioP2;P2;SDS_P1;SDS_P2;PMS_P1;PMS_P2;Temp;Humidity;BMP_temperature;BMP_pressure;BME280_temperature;BME280_humidity;BME280_pressure;Samples;Min_cycle;Max_cycle;Signal;HPM_P1;HPM_P2
2023/09/13 00:01:48;;;;;;;11.53;7.47;;;;;;;25.23;53.70;98544.03;6869731;28;20259;-82
2023/09/13 00:05:10;;;;;;;7.93;7.13;;;;;;;24.93;54.35;98555.66;6868956;28;20266;-82
2023/09/13 00:08:31;;;;;;;8.93;7.33;;;;;;;25.11;54.39;98552.00;6869847;28;20289;-83
2023/09/13 00:11:53;;;;;;;12.77;7.13;;;;;;;25.27;53.99;98550.63;6869507;28;20303;-83
2023/09/13 00:15:14;;;;;;;9.97;7.60;;;;;;;25.26;54.21;98550.91;6870537;28;20370;-83
2023/09/13 00:18:37;;;;;;;13.67;7.93;;;;;;;25.26;54.56;98551.72;6870283;28;20231;-83
2023/09/13 00:21:58;;;;;;;10.70;7.90;;;;;;;25.29;54.91;98555.81;6869254;28;20321;-82
2023/09/13 00:25:20;;;;;;;14.10;9.07;;;;;;;25.04;56.37;98568.13;6869837;28;20244;-82
2023/09/13 00:28:41;;;;;;;9.27;8.37;;;;;;;24.97;57.34;98566.88;6868898;28;20310;-82
2023/09/13 00:32:03;;;;;;;8.37;7.33;;;;;;;25.33;56.59;98559.59;6869128;28;20259;-82
2023/09/13 00:35:27;;;;;;;9.93;7.47;;;;;;;25.34;56.94;98559.31;6866861;28;20277;-82
2023/09/13 00:38:48;;;;;;;9.63;8.40;;;;;;;25.17;57.55;98538.91;6867452;28;20288;-81
2023/09/13 00:42:10;;;;;;;11.70;8.77;;;;;;;25.30;57.24;98569.31;6865576;28;20829;-81
2023/09/13 00:45:34;;;;;;;9.63;8.67;;;;;;;25.14;58.68;98564.38;6882272;28;20293;-82
2023/09/13 00:48:55;;;;;;;12.23;9.00;;;;;;;25.23;58.57;98571.63;6867000;28;20235;-81
2023/09/13 00:52:18;;;;;;;11.97;8.67;;;;;;;24.94;59.12;98539.91;6866644;28;20260;-82
2023/09/13 00:55:40;;;;;;;14.50;10.53;;;;;;;24.96;59.39;98546.75;6864217;28;20282;-81
2023/09/13 00:59:02;;;;;;;11.57;9.13;;;;;;;25.11;58.79;98518.06;6870551;28;20212;-80
2023/09/13 01:02:24;;;;;;;18.83;10.20;;;;;;;23.98;64.00;98493.00;6865090;28;20247;-80
2023/09/13 01:05:46;;;;;;;14.80;10.33;;;;;;;24.50;62.60;98482.50;6883940;28;20234;-80
2023/09/13 01:09:09;;;;;;;11.30;9.83;;;;;;;24.91;61.13;98464.13;6877001;28;20212;-80
2023/09/13 01:12:30;;;;;;;9.77;8.77;;;;;;;25.14;60.23;98465.81;6881136;28;20660;-81
2023/09/13 01:15:57;;;;;;;14.13;11.63;;;;;;;24.38;62.60;98478.56;6888584;28;20636;-81
2023/09/13 01:19:39;;;;;;;13.77;11.50;;;;;;;24.57;62.73;98474.69;6872580;28;20283;-80
2023/09/13 01:23:09;;;;;;;16.23;11.70;;;;;;;24.54;62.68;98490.97;6885142;28;20839;-82
2023/09/13 01:26:44;;;;;;;13.60;11.17;;;;;;;24.38;62.61;98468.38;6879416;28;20243;-81
2023/09/13 01:30:09;;;;;;;14.87;11.53;;;;;;;24.24;63.79;98444.66;6877908;28;20672;-80
2023/09/13 01:33:31;;;;;;;13.50;10.60;;;;;;;24.62;62.50;98443.44;6880019;28;20241;-81
2023/09/13 01:36:54;;;;;;;11.90;9.83;;;;;;;24.83;60.81;98470.31;6887200;28;20264;-80
2023/09/13 01:40:15;;;;;;;17.33;10.53;;;;;;;24.75;61.65;98472.97;6878895;28;20232;-81
2023/09/13 01:43:37;;;;;;;11.33;10.17;;;;;;;24.73;62.03;98478.78;6882326;28;20785;-80
2023/09/13 01:47:00;;;;;;;11.63;9.90;;;;;;;24.72;61.33;98504.72;6885652;28;20218;-80
2023/09/13 01:50:22;;;;;;;15.17;12.30;;;;;;;23.45;64.83;98503.38;6879066;28;20202;-81
2023/09/13 01:53:44;;;;;;;13.83;11.27;;;;;;;23.02;66.25;98487.09;6880849;28;20277;-82
2023/09/13 01:57:06;;;;;;;11.43;10.20;;;;;;;23.48;65.92;98493.72;6876884;28;20716;-81
2023/09/13 02:00:27;;;;;;;10.23;9.20;;;;;;;24.04;64.04;98503.66;6881519;28;20209;-81
2023/09/13 02:03:50;;;;;;;8.97;8.07;;;;;;;24.52;60.66;98491.28;6886105;28;20676;-80
2023/09/13 02:07:13;;;;;;;10.20;8.43;;;;;;;24.57;61.25;98496.75;6883680;28;20201;-81
2023/09/13 02:10:35;;;;;;;10.73;9.20;;;;;;;24.57;61.06;98482.94;6888371;28;20240;-81
2023/09/13 02:13:57;;;;;;;12.80;9.73;;;;;;;24.16;61.15;98459.94;6886685;28;20243;-80
2023/09/13 02:17:19;;;;;;;12.43;9.83;;;;;;;24.18;62.70;98504.53;6881247;28;20215;-81
2023/09/13 02:20:42;;;;;;;10.63;9.37;;;;;;;24.41;61.75;98489.81;6879855;28;20261;-82
2023/09/13 02:24:04;;;;;;;10.33;9.00;;;;;;;24.36;61.89;98489.91;6887141;28;20243;-81
2023/09/13 02:27:25;;;;;;;10.03;9.07;;;;;;;24.47;61.84;98513.41;6888047;28;20242;-81
2023/09/13 02:30:47;;;;;;;10.03;9.13;;;;;;;24.53;61.52;98509.44;6894025;28;20250;-81
2023/09/13 02:34:09;;;;;;;10.40;9.30;;;;;;;24.54;60.68;98494.53;6887587;28;20234;-82
2023/09/13 02:37:32;;;;;;;11.97;10.70;;;;;;;23.88;63.15;98493.97;6895012;28;20207;-81
2023/09/13 02:40:53;;;;;;;10.47;9.03;;;;;;;24.35;62.24;98495.69;6899467;28;20217;-81
2023/09/13 02:44:15;;;;;;;10.37;9.37;;;;;;;24.33;61.37;98492.44;6874420;28;20228;-81
2023/09/13 02:47:36;;;;;;;10.87;9.17;;;;;;;24.08;62.12;98490.09;6875124;28;20244;-81
2023/09/13 02:50:58;;;;;;;10.03;8.90;;;;;;;24.29;61.76;98505.16;6873295;28;20270;-82
2023/09/13 02:54:21;;;;;;;11.83;9.70;;;;;;;24.17;61.81;98516.66;6864514;28;20354;-82
2023/09/13 02:57:42;;;;;;;9.40;8.20;;;;;;;24.29;61.63;98529.97;6870933;28;20697;-81
2023/09/13 03:01:04;;;;;;;9.17;8.30;;;;;;;24.21;61.69;98553.53;6876238;28;20314;-81
2023/09/13 03:04:25;;;;;;;10.10;8.67;;;;;;;23.89;62.93;98542.44;6882295;28;20277;-82
2023/09/13 03:07:47;;;;;;;9.87;8.47;;;;;;;24.05;62.52;98540.25;6888654;28;20292;-82
2023/09/13 03:11:12;;;;;;;9.87;8.93;;;;;;;24.01;62.02;98534.53;6867856;28;20323;-81
2023/09/13 03:14:34;;;;;;;12.83;9.33;;;;;;;24.07;62.20;98538.06;6867974;28;20719;-81
2023/09/13 03:17:56;;;;;;;9.63;8.63;;;;;;;24.12;62.22;98555.31;6863725;28;20215;-83
2023/09/13 03:21:18;;;;;;;11.80;9.33;;;;;;;23.18;64.38;98524.34;6866044;28;20722;-82
2023/09/13 03:24:41;;;;;;;10.60;9.60;;;;;;;22.86;65.08;98504.88;6867271;28;20219;-82
2023/09/13 03:28:04;;;;;;;9.93;9.03;;;;;;;23.48;64.80;98555.06;6851838;28;20212;-82
2023/09/13 03:31:27;;;;;;;9.57;8.57;;;;;;;23.62;63.87;98550.50;6863024;28;20367;-82
2023/09/13 03:34:48;;;;;;;8.77;7.90;;;;;;;23.38;64.64;98557.13;6865510;28;20373;-82
2023/09/13 03:38:10;;;;;;;7.90;7.00;;;;;;;23.13;65.06;98533.44;6848123;28;20314;-83
2023/09/13 03:41:31;;;;;;;9.57;8.57;;;;;;;24.06;62.51;98572.22;6839179;28;20285;-82
2023/09/13 03:44:54;;;;;;;9.63;8.70;;;;;;;23.89;63.33;98572.72;6855313;28;20355;-83
2023/09/13 03:48:16;;;;;;;13.03;9.33;;;;;;;23.88;63.18;98573.84;6866192;28;20989;-83
2023/09/13 03:51:37;;;;;;;11.10;9.93;;;;;;;23.91;62.61;98534.72;6865771;28;20366;-82
2023/09/13 03:54:58;;;;;;;18.53;16.93;;;;;;;24.22;61.58;98555.16;6865970;28;20723;-82
2023/09/13 03:58:20;;;;;;;11.23;8.70;;;;;;;23.99;62.40;98569.00;6865290;28;20254;-83
2023/09/13 04:01:44;;;;;;;11.77;8.50;;;;;;;24.30;61.01;98570.22;6866106;28;20286;-83
2023/09/13 04:05:06;;;;;;;11.17;8.87;;;;;;;24.07;61.88;98574.66;6868918;28;20258;-82
2023/09/13 04:08:28;;;;;;;11.20;9.80;;;;;;;23.43;62.89;98549.59;6868940;28;20209;-82
2023/09/13 04:11:50;;;;;;;9.03;8.13;;;;;;;24.02;61.33;98551.91;6868119;28;20223;-82
2023/09/13 04:15:12;;;;;;;10.43;9.47;;;;;;;23.98;61.26;98528.81;6867836;28;20264;-82
2023/09/13 04:18:35;;;;;;;9.67;8.77;;;;;;;24.09;60.98;98535.81;6866353;28;20295;-82
2023/09/13 04:21:56;;;;;;;11.70;9.90;;;;;;;23.99;61.33;98561.56;6867089;28;20316;-82
2023/09/13 04:25:18;;;;;;;10.17;9.17;;;;;;;24.10;61.55;98563.06;6871365;28;20368;-82
2023/09/13 04:28:39;;;;;;;16.03;9.30;;;;;;;24.04;61.46;98567.00;6875101;28;20257;-82
2023/09/13 04:32:01;;;;;;;10.47;9.03;;;;;;;24.01;62.01;98575.06;6871521;28;20818;-82
2023/09/13 04:35:24;;;;;;;10.87;9.87;;;;;;;23.68;62.38;98554.00;6869648;28;20311;-82
2023/09/13 04:38:47;;;;;;;11.17;9.97;;;;;;;23.47;63.50;98575.44;6872810;28;20215;-82
2023/09/13 04:42:08;;;;;;;13.30;11.23;;;;;;;23.56;62.93;98573.69;6868836;28;20227;-81
2023/09/13 04:45:30;;;;;;;13.13;11.90;;;;;;;23.35;64.06;98586.03;6868926;28;20287;-82
2023/09/13 04:48:51;;;;;;;12.57;11.37;;;;;;;23.61;63.16;98581.84;6868191;28;20311;-83
2023/09/13 04:52:14;;;;;;;13.10;11.73;;;;;;;23.68;63.22;98584.25;6867763;28;20259;-83
2023/09/13 04:55:36;;;;;;;13.53;12.13;;;;;;;23.91;62.56;98595.28;6857087;28;20317;-83
2023/09/13 04:58:57;;;;;;;14.60;11.40;;;;;;;23.63;62.46;98607.19;6866957;28;20209;-84
2023/09/13 05:02:19;;;;;;;12.97;11.57;;;;;;;22.95;63.81;98602.13;6865445;28;20255;-82
2023/09/13 05:05:41;;;;;;;14.90;10.67;;;;;;;23.04;65.50;98609.47;6873219;28;20227;-83
2023/09/13 05:09:04;;;;;;;12.13;10.97;;;;;;;23.50;63.81;98615.31;6866887;28;20212;-83
2023/09/13 05:12:25;;;;;;;12.53;10.70;;;;;;;23.64;63.80;98621.75;6874384;28;20273;-83
2023/09/13 05:15:47;;;;;;;14.53;10.73;;;;;;;23.26;64.05;98595.22;6870738;28;20223;-83
2023/09/13 05:19:08;;;;;;;12.47;11.17;;;;;;;23.51;63.89;98593.00;6869945;28;20301;-82
2023/09/13 05:22:30;;;;;;;12.60;10.50;;;;;;;23.92;62.46;98607.09;6864808;28;20662;-80
2023/09/13 05:25:55;;;;;;;14.27;9.40;;;;;;;24.09;62.00;98600.00;6864509;28;20242;-83
2023/09/13 05:29:17;;;;;;;10.50;8.97;;;;;;;24.05;61.75;98601.69;6848489;28;20205;-81
2023/09/13 05:32:38;;;;;;;10.80;9.07;;;;;;;23.90;61.50;98609.34;6868614;28;20362;-80
2023/09/13 05:36:00;;;;;;;9.40;8.33;;;;;;;23.67;62.26;98569.66;6867802;28;20696;-80
2023/09/13 05:39:21;;;;;;;9.27;8.47;;;;;;;24.41;61.69;98619.34;6866919;28;20202;-81
2023/09/13 05:42:44;;;;;;;9.00;8.10;;;;;;;24.65;60.34;98622.06;6864236;28;20380;-81
2023/09/13 05:46:06;;;;;;;9.37;8.47;;;;;;;24.61;59.84;98635.59;6866434;28;20297;-80
2023/09/13 05:49:29;;;;;;;9.47;7.47;;;;;;;24.59;59.96;98648.88;6868600;28;20294;-82
2023/09/13 05:52:51;;;;;;;10.87;7.97;;;;;;;24.61;59.29;98657.66;6868408;28;20230;-82
2023/09/13 05:56:12;;;;;;;9.50;7.90;;;;;;;24.44;60.41;98651.84;6877672;28;20317;-83
2023/09/13 05:59:39;;;;;;;9.73;8.63;;;;;;;24.28;61.09;98638.56;6870905;28;20353;-83
2023/09/13 06:03:01;;;;;;;9.90;8.43;;;;;;;24.66;60.63;98646.56;6866717;28;20235;-82
2023/09/13 06:06:22;;;;;;;10.47;8.40;;;;;;;24.58;60.55;98627.94;6875806;28;20342;-84
2023/09/13 06:09:44;;;;;;;9.10;7.73;;;;;;;24.79;60.23;98653.25;6877334;28;20351;-84
2023/09/13 06:13:05;;;;;;;9.10;8.20;;;;;;;24.28;60.67;98631.13;6873833;28;20297;-85
2023/09/13 06:16:29;;;;;;;11.93;8.20;;;;;;;24.61;60.67;98654.91;6872771;28;20277;-84
2023/09/13 06:19:50;;;;;;;12.67;8.07;;;;;;;24.03;62.03;98644.44;6872699;28;20272;-84
2023/09/13 06:23:37;;;;;;;8.90;8.00;;;;;;;24.76;60.75;98656.59;6871931;28;20312;-83
2023/09/13 06:26:58;;;;;;;9.03;8.10;;;;;;;24.52;60.32;98606.22;6872083;28;20201;-85
2023/09/13 06:30:20;;;;;;;9.33;6.80;;;;;;;25.17;59.00;98657.56;6872807;28;20206;-83
2023/09/13 06:33:41;;;;;;;8.17;7.37;;;;;;;25.07;59.27;98679.84;6873830;28;20233;-84
2023/09/13 06:37:03;;;;;;;9.50;8.23;;;;;;;24.57;60.17;98647.53;6873024;28;20262;-84
2023/09/13 06:40:26;;;;;;;7.70;6.90;;;;;;;24.73;58.88;98622.16;6872145;28;20299;-84
2023/09/13 06:43:48;;;;;;;10.50;7.57;;;;;;;24.92;59.69;98691.94;6865703;28;20225;-84
2023/09/13 06:47:09;;;;;;;8.87;7.87;;;;;;;24.75;60.17;98688.91;6900498;28;20214;-83
2023/09/13 06:50:31;;;;;;;8.97;8.07;;;;;;;24.54;61.30;98686.72;6883099;28;20222;-84
2023/09/13 06:53:52;;;;;;;10.33;7.87;;;;;;;24.55;61.53;98691.91;6894051;28;20294;-84
2023/09/13 06:57:16;;;;;;;12.47;7.93;;;;;;;24.47;60.91;98658.66;6876685;28;20234;-83
2023/09/13 07:00:39;;;;;;;9.47;7.00;;;;;;;24.91;60.22;98715.13;6849689;28;20276;-83
2023/09/13 07:04:00;;;;;;;12.10;7.80;;;;;;;24.71;60.90;98679.56;6870405;28;20218;-83
2023/09/13 07:07:22;;;;;;;8.00;7.17;;;;;;;24.56;61.44;98704.59;6871136;28;20219;-83
2023/09/13 07:10:44;;;;;;;8.43;7.30;;;;;;;24.56;60.98;98692.75;6870939;28;20209;-83
2023/09/13 07:14:07;;;;;;;7.40;6.77;;;;;;;25.02;60.07;98707.50;6869585;28;20209;-84
2023/09/13 07:17:28;;;;;;;6.80;6.10;;;;;;;24.69;59.55;98651.47;6867150;28;20741;-83
2023/09/13 07:20:50;;;;;;;8.87;6.53;;;;;;;24.81;59.54;98651.84;6862535;28;20234;-82
2023/09/13 07:24:12;;;;;;;6.63;5.93;;;;;;;25.03;58.38;98689.81;6867173;28;20212;-83
2023/09/13 07:27:34;;;;;;;8.77;6.00;;;;;;;24.94;58.12;98720.03;6865882;28;20324;-84
2023/09/13 07:30:57;;;;;;;6.03;5.43;;;;;;;25.20;58.71;98721.25;6864857;28;22537;-84
2023/09/13 07:34:19;;;;;;;6.00;5.40;;;;;;;24.74;56.80;98581.63;6838762;29;20680;-84
2023/09/13 07:37:40;;;;;;;6.23;5.00;;;;;;;25.55;56.66;98711.59;6876221;28;20203;-83
2023/09/13 07:41:02;;;;;;;5.93;4.73;;;;;;;25.74;55.64;98704.88;6892601;28;20368;-84
2023/09/13 07:44:23;;;;;;;4.67;4.20;;;;;;;25.82;54.22;98717.97;6870994;28;20229;-84
2023/09/13 07:47:46;;;;;;;5.77;4.13;;;;;;;26.03;55.41;98727.53;6867045;28;20349;-83
2023/09/13 07:51:08;;;;;;;5.10;4.30;;;;;;;25.96;54.60;98705.00;6865380;28;20300;-86
2023/09/13 07:54:29;;;;;;;5.17;4.40;;;;;;;26.07;54.86;98728.53;6875014;28;20279;-84
2023/09/13 07:57:51;;;;;;;4.77;4.27;;;;;;;26.05;53.66;98703.16;6876267;28;20673;-83
2023/09/13 08:01:12;;;;;;;4.53;4.13;;;;;;;25.94;54.37;98732.13;6869810;28;20232;-84
2023/09/13 08:04:35;;;;;;;5.73;4.40;;;;;;;25.83;54.08;98703.00;6877480;28;20228;-83
2023/09/13 08:07:57;;;;;;;4.40;4.00;;;;;;;25.79;54.11;98718.56;6882709;28;20241;-83
2023/09/13 08:11:18;;;;;;;4.40;4.00;;;;;;;25.93;53.80;98711.16;6878748;28;20310;-83
2023/09/13 08:14:40;;;;;;;4.27;3.93;;;;;;;25.87;53.70;98705.97;6874307;28;20660;-83
2023/09/13 08:18:03;;;;;;;4.10;3.70;;;;;;;25.88;54.08;98718.66;6874496;28;20796;-84
2023/09/13 08:21:25;;;;;;;4.43;4.03;;;;;;;25.22;54.04;98622.44;6864478;28;20234;-83
2023/09/13 08:24:47;;;;;;;6.40;4.13;;;;;;;26.12;53.26;98736.72;6876624;28;20347;-83
2023/09/13 08:28:09;;;;;;;4.00;3.60;;;;;;;25.32;54.42;98674.69;6875279;28;20247;-83
2023/09/13 08:31:31;;;;;;;5.20;3.80;;;;;;;25.81;53.98;98755.00;6868953;28;20225;-83
2023/09/13 08:34:52;;;;;;;3.80;3.50;;;;;;;25.93;53.98;98760.88;6864654;28;20263;-83
2023/09/13 08:38:15;;;;;;;5.03;4.27;;;;;;;25.64;54.69;98767.75;6870165;28;20278;-84
2023/09/13 08:41:37;;;;;;;5.67;3.90;;;;;;;25.74;53.67;98748.22;6864742;28;20267;-84
2023/09/13 08:45:00;;;;;;;5.13;4.20;;;;;;;25.74;54.16;98773.91;6837735;29;20240;-83
2023/09/13 08:48:22;;;;;;;7.07;3.73;;;;;;;25.41;54.23;98755.72;6836328;29;20256;-83
2023/09/13 08:51:45;;;;;;;11.60;7.43;;;;;;;26.00;53.34;98777.03;6857596;28;20442;-83
2023/09/13 08:55:09;;;;;;;17.63;9.00;;;;;;;25.48;53.68;98736.81;6863049;28;20267;-82
2023/09/13 08:58:31;;;;;;;4.43;3.60;;;;;;;25.38;53.68;98786.69;6863676;28;20236;-83
2023/09/13 09:01:54;;;;;;;14.90;9.63;;;;;;;25.68;53.71;98774.31;6863350;28;20258;-83
2023/09/13 09:05:16;;;;;;;4.20;3.50;;;;;;;25.86;52.83;98778.94;6862300;28;20300;-82
2023/09/13 09:08:39;;;;;;;8.07;4.93;;;;;;;25.82;53.61;98781.50;6856271;28;20262;-81
2023/09/13 09:12:04;;;;;;;5.33;4.20;;;;;;;26.14;53.33;98798.03;6856906;28;20734;-82
2023/09/13 09:15:26;;;;;;;8.27;5.53;;;;;;;26.10;53.40;98790.66;6853356;28;20683;-82
2023/09/13 09:18:48;;;;;;;4.00;3.57;;;;;;;26.25;53.07;98795.91;6868548;28;20227;-82
2023/09/13 09:22:09;;;;;;;4.70;4.30;;;;;;;26.36;52.80;98798.16;6862748;28;20270;-80
2023/09/13 09:25:32;;;;;;;13.13;8.97;;;;;;;26.25;52.83;98776.56;6862698;28;20236;-81
2023/09/13 09:28:55;;;;;;;5.13;4.27;;;;;;;26.40;53.04;98799.19;6863700;28;20292;-81
2023/09/13 09:32:16;;;;;;;15.13;7.33;;;;;;;25.94;52.88;98712.78;6867811;28;20316;-79
2023/09/13 09:35:38;;;;;;;5.53;4.20;;;;;;;26.64;52.35;98807.28;6885104;28;20230;-80
2023/09/13 09:39:01;;;;;;;7.67;5.17;;;;;;;26.79;52.36;98804.22;6874041;28;20301;-80
2023/09/13 09:42:22;;;;;;;10.37;5.07;;;;;;;26.64;52.47;98813.66;6889116;28;20238;-82
2023/09/13 09:45:45;;;;;;;8.87;5.30;;;;;;;26.37;53.45;98799.78;6889622;28;20289;-81
2023/09/13 09:49:07;;;;;;;12.00;5.87;;;;;;;26.34;54.50;98810.66;6870099;28;20328;-80
2023/09/13 09:52:28;;;;;;;9.23;5.60;;;;;;;25.79;55.98;98776.56;6868402;28;20231;-83
2023/09/13 09:55:51;;;;;;;5.00;4.23;;;;;;;26.17;55.46;98816.78;6879682;28;20266;-82
2023/09/13 09:59:12;;;;;;;5.70;4.37;;;;;;;26.16;53.23;98784.75;6891221;28;20690;-80
2023/09/13 10:02:35;;;;;;;6.10;4.60;;;;;;;26.35;53.61;98812.28;6869296;28;20235;-80
2023/09/13 10:06:03;;;;;;;5.43;4.30;;;;;;;26.40;54.04;98821.31;6863053;28;20205;-80
2023/09/13 10:09:24;;;;;;;4.67;3.87;;;;;;;26.61;53.30;98824.53;6860937;28;20200;-83
2023/09/13 10:12:47;;;;;;;5.77;4.13;;;;;;;26.71;52.45;98824.31;6861545;28;20329;-81
2023/09/13 10:16:11;;;;;;;4.33;3.87;;;;;;;26.40;52.55;98779.00;6870427;28;20220;-81
2023/09/13 10:19:34;;;;;;;4.77;3.67;;;;;;;26.58;51.47;98775.34;6888730;28;20208;-81
2023/09/13 10:22:57;;;;;;;4.37;3.80;;;;;;;26.90;51.09;98823.03;6887493;28;20381;-80
2023/09/13 10:26:20;;;;;;;5.43;3.87;;;;;;;26.72;51.58;98806.59;6860150;28;20212;-81
2023/09/13 10:29:46;;;;;;;4.47;3.37;;;;;;;26.93;51.31;98803.06;6863580;28;20316;-80
2023/09/13 10:33:12;;;;;;;4.87;3.97;;;;;;;27.10;50.28;98825.38;6861683;28;20680;-81
2023/09/13 10:36:38;;;;;;;3.63;3.33;;;;;;;26.87;50.73;98817.31;6863870;28;20212;-82
2023/09/13 10:40:10;;;;;;;4.20;3.80;;;;;;;26.66;51.90;98818.88;6864482;28;20616;-81
2023/09/13 10:43:31;;;;;;;4.47;4.03;;;;;;;26.72;51.46;98821.22;6863602;28;20263;-82
2023/09/13 10:46:53;;;;;;;5.90;4.50;;;;;;;26.20;52.69;98762.84;6863440;28;20224;-82
2023/09/13 10:50:15;;;;;;;5.10;4.60;;;;;;;25.94;54.21;98820.53;6862166;28;20238;-81
2023/09/13 10:53:38;;;;;;;4.47;4.07;;;;;;;26.54;52.76;98818.59;6867437;28;20229;-80
2023/09/13 10:57:00;;;;;;;4.30;3.90;;;;;;;26.57;52.77;98816.03;6863070;28;20236;-84
2023/09/13 11:00:22;;;;;;;4.40;3.80;;;;;;;26.69;52.04;98813.56;6867751;28;20685;-81
2023/09/13 11:03:44;;;;;;;4.67;4.27;;;;;;;27.00;49.79;98808.16;6876899;28;20228;-82
2023/09/13 11:07:05;;;;;;;4.27;3.87;;;;;;;26.95;49.54;98808.28;6867685;28;20209;-81
2023/09/13 11:10:31;;;;;;;4.33;3.87;;;;;;;26.71;50.58;98800.22;6869290;28;20212;-81
2023/09/13 11:13:56;;;;;;;4.10;3.67;;;;;;;26.93;50.86;98808.59;6882262;28;20243;-82
2023/09/13 11:17:37;;;;;;;4.07;3.77;;;;;;;26.92;50.03;98808.91;6873669;28;20225;-82
2023/09/13 11:20:59;;;;;;;3.87;3.57;;;;;;;26.85;50.41;98801.00;6867220;28;20232;-81
2023/09/13 11:24:38;;;;;;;4.60;4.10;;;;;;;26.81;50.32;98816.59;6868096;28;20205;-81
2023/09/13 11:28:04;;;;;;;4.10;3.70;;;;;;;26.96;50.29;98819.03;6879591;28;20391;-81
2023/09/13 11:31:25;;;;;;;3.70;3.40;;;;;;;27.35;48.69;98810.97;6874292;28;20323;-81
2023/09/13 11:34:54;;;;;;;4.47;4.00;;;;;;;27.26;49.25;98823.09;6876662;28;20235;-81
2023/09/13 11:38:17;;;;;;;6.73;4.57;;;;;;;27.04;49.84;98815.53;6874654;28;20224;-81
2023/09/13 11:41:40;;;;;;;4.90;4.37;;;;;;;27.35;49.58;98824.81;6873035;28;20352;-81
2023/09/13 11:45:07;;;;;;;4.70;4.30;;;;;;;27.60;48.07;98824.19;6874177;28;20224;-81
2023/09/13 11:48:29;;;;;;;6.07;4.03;;;;;;;27.64;47.97;98793.88;6880576;28;20671;-81
2023/09/13 11:51:53;;;;;;;4.57;4.20;;;;;;;28.60;46.17;98813.19;6883456;28;20384;-80
2023/09/13 11:55:14;;;;;;;4.20;3.80;;;;;;;27.97;46.14;98732.34;6876098;28;20213;-82
2023/09/13 11:58:38;;;;;;;4.73;4.20;;;;;;;28.68;46.12;98798.56;6875316;28;20517;-82
2023/09/13 12:02:01;;;;;;;6.93;4.10;;;;;;;29.15;44.66;98782.97;6870600;28;20246;-81
2023/09/13 12:05:24;;;;;;;4.90;4.33;;;;;;;28.40;45.89;98793.53;6873293;28;20212;-82
2023/09/13 12:08:48;;;;;;;5.33;3.53;;;;;;;29.17;44.06;98798.16;6880221;28;20217;-81
2023/09/13 12:12:09;;;;;;;5.77;4.47;;;;;;;28.37;45.17;98781.13;6880606;28;20334;-82
2023/09/13 12:15:31;;;;;;;5.73;4.40;;;;;;;28.53;45.24;98767.63;6887864;28;20300;-82
2023/09/13 12:18:54;;;;;;;4.93;4.27;;;;;;;28.23;45.74;98787.88;6882189;28;20680;-79
2023/09/13 12:22:16;;;;;;;4.23;3.90;;;;;;;27.84;46.87;98783.13;6875097;28;20666;-80
2023/09/13 12:25:37;;;;;;;4.70;4.30;;;;;;;27.43;48.16;98785.28;6864124;28;20267;-80
2023/09/13 12:28:59;;;;;;;4.57;4.20;;;;;;;27.76;47.07;98796.91;6872579;28;20220;-82
2023/09/13 12:32:20;;;;;;;4.87;3.50;;;;;;;28.15;45.66;98747.09;6880021;28;20240;-82
2023/09/13 12:35:43;;;;;;;4.47;4.07;;;;;;;28.04;45.15;98785.38;6867975;28;20295;-81
2023/09/13 12:39:13;;;;;;;4.37;3.97;;;;;;;28.21;45.37;98791.00;6874830;28;20670;-81
2023/09/13 12:42:38;;;;;;;4.90;4.50;;;;;;;27.44;46.42;98769.47;6863243;28;20228;-81
2023/09/13 12:46:00;;;;;;;4.37;3.80;;;;;;;28.71;44.46;98783.22;6872797;28;20627;-81
2023/09/13 12:49:21;;;;;;;5.17;3.93;;;;;;;28.07;45.08;98732.06;6881936;28;20354;-81
2023/09/13 12:52:44;;;;;;;4.57;4.17;;;;;;;29.02;43.95;98775.59;6872965;28;20276;-81
2023/09/13 12:56:10;;;;;;;4.57;3.73;;;;;;;27.72;45.03;98710.03;6874447;28;20323;-82
2023/09/13 12:59:42;;;;;;;4.30;3.90;;;;;;;27.60;45.88;98746.59;6862454;28;20209;-80
2023/09/13 13:03:04;;;;;;;4.20;3.90;;;;;;;28.09;45.81;98776.09;6875203;28;20233;-80
2023/09/13 13:06:26;;;;;;;4.73;4.30;;;;;;;28.09;45.79;98779.69;6886963;28;20337;-81
2023/09/13 13:09:51;;;;;;;5.27;4.50;;;;;;;29.21;42.30;98785.25;6878894;28;20213;-80
2023/09/13 13:13:13;;;;;;;4.83;4.03;;;;;;;29.53;41.73;98772.84;6878057;28;20239;-80
2023/09/13 13:16:34;;;;;;;4.40;4.00;;;;;;;29.29;42.78;98767.78;6876304;28;20260;-82
2023/09/13 13:19:56;;;;;;;5.27;3.93;;;;;;;29.07;43.89;98779.03;6877092;28;20221;-80
2023/09/13 13:23:17;;;;;;;4.10;3.77;;;;;;;28.93;43.36;98783.06;6870538;28;20780;-81
2023/09/13 13:26:40;;;;;;;4.43;3.80;;;;;;;29.08;43.75;98789.00;6874122;28;20721;-80
2023/09/13 13:30:02;;;;;;;5.07;4.57;;;;;;;28.10;45.04;98792.41;6868845;28;20219;-80
2023/09/13 13:33:23;;;;;;;5.07;4.53;;;;;;;28.76;43.78;98764.44;6877426;28;20779;-80
2023/09/13 13:36:45;;;;;;;4.77;4.30;;;;;;;29.47;42.91;98780.50;6865997;28;20312;-81
2023/09/13 13:40:08;;;;;;;4.53;4.13;;;;;;;29.21;42.54;98781.66;6865793;28;20217;-79
2023/09/13 13:43:30;;;;;;;6.17;4.00;;;;;;;28.64;43.93;98767.03;6865208;28;20598;-80
2023/09/13 13:46:52;;;;;;;4.50;4.10;;;;;;;28.60;44.09;98766.03;6861708;28;20305;-80
2023/09/13 13:50:14;;;;;;;4.13;3.70;;;;;;;29.28;42.67;98771.69;6861445;28;20301;-81
2023/09/13 13:53:35;;;;;;;4.20;3.70;;;;;;;29.21;43.28;98774.16;6860915;28;20264;-80
2023/09/13 13:56:59;;;;;;;4.90;3.77;;;;;;;28.28;43.54;98769.16;6861751;28;20707;-80
2023/09/13 14:00:22;;;;;;;4.03;3.43;;;;;;;28.06;44.11;98774.78;6887303;28;20221;-80
2023/09/13 14:03:44;;;;;;;4.63;4.10;;;;;;;28.55;43.65;98757.06;6877468;28;20702;-80
2023/09/13 14:07:06;;;;;;;5.03;4.03;;;;;;;28.43;44.09;98765.19;6859303;28;20285;-80
2023/09/13 14:10:27;;;;;;;3.97;3.53;;;;;;;28.85;43.71;98767.22;6861017;28;20348;-80
2023/09/13 14:13:49;;;;;;;4.20;3.80;;;;;;;28.17;43.84;98773.38;6861717;28;20321;-79
2023/09/13 14:17:11;;;;;;;4.33;3.63;;;;;;;27.59;45.78;98786.53;6860329;28;20292;-80
2023/09/13 14:20:33;;;;;;;4.13;3.70;;;;;;;28.61;43.29;98777.94;6860301;28;20440;-80
2023/09/13 14:23:57;;;;;;;4.73;3.73;;;;;;;28.66;43.14;98767.50;6861376;28;20730;-80
2023/09/13 14:27:18;;;;;;;4.00;3.60;;;;;;;28.43;42.70;98765.19;6865678;28;20198;-78
2023/09/13 14:30:40;;;;;;;5.50;4.13;;;;;;;28.45;42.40;98772.03;6859746;28;20263;-78
2023/09/13 14:34:05;;;;;;;4.20;3.80;;;;;;;28.21;42.99;98776.31;6865099;28;20283;-78
2023/09/13 14:37:26;;;;;;;3.83;3.53;;;;;;;27.85;44.04;98773.69;6862973;28;20860;-78
2023/09/13 14:40:48;;;;;;;5.00;3.60;;;;;;;28.21;42.95;98768.00;6862940;28;20303;-77
2023/09/13 14:44:11;;;;;;;5.10;3.20;;;;;;;27.95;43.94;98767.88;6862871;28;20295;-77
2023/09/13 14:47:32;;;;;;;4.07;3.50;;;;;;;27.88;45.18;98795.22;6863978;28;20287;-78
2023/09/13 14:50:55;;;;;;;5.20;4.47;;;;;;;26.88;51.75;98797.63;6864148;28;20312;-77
2023/09/13 14:54:17;;;;;;;7.77;4.93;;;;;;;26.38;54.32;98793.16;6865758;28;20316;-78
2023/09/13 14:57:38;;;;;;;6.37;5.37;;;;;;;26.03;55.73;98802.16;6866709;28;20668;-78
2023/09/13 15:01:00;;;;;;;6.83;5.57;;;;;;;26.32;55.79;98799.88;6867044;28;20320;-78
2023/09/13 15:04:21;;;;;;;8.03;5.50;;;;;;;26.88;54.46;98794.88;6869462;28;20245;-79
2023/09/13 15:07:44;;;;;;;6.13;4.70;;;;;;;26.69;53.11;98796.13;6872421;28;20256;-80
2023/09/13 15:11:06;;;;;;;5.17;4.67;;;;;;;26.49;53.14;98786.28;6873866;28;20247;-83
2023/09/13 15:14:28;;;;;;;5.47;4.80;;;;;;;26.45;54.18;98773.38;6871634;28;20221;-85
2023/09/13 15:17:49;;;;;;;6.33;4.77;;;;;;;25.98;54.72;98798.63;6867108;28;20280;-85
2023/09/13 15:21:11;;;;;;;5.77;5.17;;;;;;;27.14;51.45;98797.88;6867110;28;20260;-86
2023/09/13 15:24:37;;;;;;;5.67;5.17;;;;;;;26.59;53.61;98802.69;6873081;28;20209;-80
2023/09/13 15:27:59;;;;;;;5.97;5.37;;;;;;;26.70;52.90;98765.38;6869734;28;20300;-81
2023/09/13 15:31:20;;;;;;;7.20;5.43;;;;;;;26.68;53.70;98795.31;6868446;28;20316;-81
2023/09/13 15:34:42;;;;;;;5.40;4.90;;;;;;;26.30;53.55;98804.91;6867096;28;20300;-81
2023/09/13 15:38:04;;;;;;;5.10;4.70;;;;;;;26.91;53.35;98791.50;6865851;28;20319;-81
2023/09/13 15:41:26;;;;;;;4.60;4.20;;;;;;;27.09;50.81;98796.06;6865799;28;20311;-81
2023/09/13 15:44:48;;;;;;;4.77;4.27;;;;;;;26.95;50.30;98786.16;6896356;28;20293;-81
2023/09/13 15:48:09;;;;;;;6.03;3.77;;;;;;;27.10;49.66;98799.63;6892556;28;20772;-80